sensor_id;sensor_type;location;lat;lon;timestamp;temperature;humidity
65472;DHT22;52068;50.710;14.492;2022-10-22T00:00:32;22.08;52.64
65472;DHT22;52068;50.710;14.492;2022-10-22T00:02:57;22.08;52.72
65472;DHT22;52068;50.710;14.492;2022-10-22T00:05:23;22.06;52.85
65472;DHT22;52068;50.710;14.492;2022-10-22T00:07:48;22.06;52.92
65472;DHT22;52068;50.710;14.492;2022-10-22T00:10:13;22.02;52.96
65472;DHT22;52068;50.710;14.492;2022-10-22T00:12:39;22.04;52.99
65472;DHT22;52068;50.710;14.492;2022-10-22T00:15:04;22.01;53.00
65472;DHT22;52068;50.710;14.492;2022-10-22T00:17:30;21.98;52.96
65472;DHT22;52068;50.710;14.492;2022-10-22T00:19:55;22.00;52.96
65472;DHT22;52068;50.710;14.492;2022-10-22T00:22:21;21.98;52.97
65472;DHT22;52068;50.710;14.492;2022-10-22T00:24:46;21.98;52.90
65472;DHT22;52068;50.710;14.492;2022-10-22T00:27:11;21.98;52.94
65472;DHT22;52068;50.710;14.492;2022-10-22T00:29:37;21.95;53.03
65472;DHT22;52068;50.710;14.492;2022-10-22T00:32:02;21.97;53.06
65472;DHT22;52068;50.710;14.492;2022-10-22T00:34:28;21.95;53.02
65472;DHT22;52068;50.710;14.492;2022-10-22T00:36:53;21.92;53.04
65472;DHT22;52068;50.710;14.492;2022-10-22T00:39:19;21.91;53.11
65472;DHT22;52068;50.710;14.492;2022-10-22T00:41:45;21.92;53.12
65472;DHT22;52068;50.710;14.492;2022-10-22T00:46:55;21.88;53.08
65472;DHT22;52068;50.710;14.492;2022-10-22T00:49:20;21.90;53.13
65472;DHT22;52068;50.710;14.492;2022-10-22T00:51:45;21.88;53.12
65472;DHT22;52068;50.710;14.492;2022-10-22T00:54:10;21.88;53.09
65472;DHT22;52068;50.710;14.492;2022-10-22T00:56:36;21.87;53.12
65472;DHT22;52068;50.710;14.492;2022-10-22T00:59:01;21.84;53.09
65472;DHT22;52068;50.710;14.492;2022-10-22T01:01:28;21.85;53.11
65472;DHT22;52068;50.710;14.492;2022-10-22T01:03:54;21.84;53.06
65472;DHT22;52068;50.710;14.492;2022-10-22T01:06:30;21.84;53.02
65472;DHT22;52068;50.710;14.492;2022-10-22T01:11:22;21.83;53.04
65472;DHT22;52068;50.710;14.492;2022-10-22T01:16:20;21.81;53.12
65472;DHT22;52068;50.710;14.492;2022-10-22T01:18:58;21.80;53.20
65472;DHT22;52068;50.710;14.492;2022-10-22T01:21:29;21.77;53.26
65472;DHT22;52068;50.710;14.492;2022-10-22T01:24:11;21.78;53.25
65472;DHT22;52068;50.710;14.492;2022-10-22T01:29:21;21.77;53.36
65472;DHT22;52068;50.710;14.492;2022-10-22T01:31:50;21.75;53.61
65472;DHT22;52068;50.710;14.492;2022-10-22T01:34:18;21.73;53.64
65472;DHT22;52068;50.710;14.492;2022-10-22T01:36:44;21.74;53.67
65472;DHT22;52068;50.710;14.492;2022-10-22T01:39:10;21.71;53.71
65472;DHT22;52068;50.710;14.492;2022-10-22T01:41:37;21.71;53.75
65472;DHT22;52068;50.710;14.492;2022-10-22T01:44:03;21.68;53.82
65472;DHT22;52068;50.710;14.492;2022-10-22T01:46:28;21.70;54.10
65472;DHT22;52068;50.710;14.492;2022-10-22T01:48:59;21.70;53.99
65472;DHT22;52068;50.710;14.492;2022-10-22T01:51:47;21.67;53.89
65472;DHT22;52068;50.710;14.492;2022-10-22T01:57:01;21.64;54.10
65472;DHT22;52068;50.710;14.492;2022-10-22T02:02:12;21.64;54.13
65472;DHT22;52068;50.710;14.492;2022-10-22T02:04:45;21.65;54.07
65472;DHT22;52068;50.710;14.492;2022-10-22T02:07:14;21.63;54.13
65472;DHT22;52068;50.710;14.492;2022-10-22T02:09:41;21.61;54.18
65472;DHT22;52068;50.710;14.492;2022-10-22T02:12:07;21.63;54.06
65472;DHT22;52068;50.710;14.492;2022-10-22T02:14:33;21.63;54.26
65472;DHT22;52068;50.710;14.492;2022-10-22T02:17:00;21.57;54.20
65472;DHT22;52068;50.710;14.492;2022-10-22T02:19:26;21.58;54.23
65472;DHT22;52068;50.710;14.492;2022-10-22T02:21:53;21.58;54.16
65472;DHT22;52068;50.710;14.492;2022-10-22T02:24:19;21.58;54.04
65472;DHT22;52068;50.710;14.492;2022-10-22T02:29:14;21.57;53.99
65472;DHT22;52068;50.710;14.492;2022-10-22T02:31:42;21.54;54.00
65472;DHT22;52068;50.710;14.492;2022-10-22T02:34:09;21.53;54.03
65472;DHT22;52068;50.710;14.492;2022-10-22T02:36:39;21.54;54.12
65472;DHT22;52068;50.710;14.492;2022-10-22T02:39:05;21.57;54.09
65472;DHT22;52068;50.710;14.492;2022-10-22T02:41:31;21.55;54.06
65472;DHT22;52068;50.710;14.492;2022-10-22T02:43:57;21.53;54.06
65472;DHT22;52068;50.710;14.492;2022-10-22T02:46:22;21.54;54.04
65472;DHT22;52068;50.710;14.492;2022-10-22T02:48:48;21.50;54.05
65472;DHT22;52068;50.710;14.492;2022-10-22T02:51:13;21.53;54.11
65472;DHT22;52068;50.710;14.492;2022-10-22T02:53:39;21.50;54.13
65472;DHT22;52068;50.710;14.492;2022-10-22T02:56:04;21.51;54.10
65472;DHT22;52068;50.710;14.492;2022-10-22T02:58:30;21.51;54.16
65472;DHT22;52068;50.710;14.492;2022-10-22T03:00:55;21.50;54.25
65472;DHT22;52068;50.710;14.492;2022-10-22T03:03:20;21.49;54.30
65472;DHT22;52068;50.710;14.492;2022-10-22T03:05:45;21.47;54.34
65472;DHT22;52068;50.710;14.492;2022-10-22T03:08:11;21.49;54.37
65472;DHT22;52068;50.710;14.492;2022-10-22T03:10:36;21.49;54.45
65472;DHT22;52068;50.710;14.492;2022-10-22T03:13:01;21.50;54.35
65472;DHT22;52068;50.710;14.492;2022-10-22T03:15:26;21.47;54.35
65472;DHT22;52068;50.710;14.492;2022-10-22T03:17:52;21.43;54.50
65472;DHT22;52068;50.710;14.492;2022-10-22T03:20:17;21.44;54.56
65472;DHT22;52068;50.710;14.492;2022-10-22T03:22:42;21.43;54.48
65472;DHT22;52068;50.710;14.492;2022-10-22T03:25:12;21.44;54.48
65472;DHT22;52068;50.710;14.492;2022-10-22T03:27:39;21.40;54.53
65472;DHT22;52068;50.710;14.492;2022-10-22T03:30:05;21.44;54.55
65472;DHT22;52068;50.710;14.492;2022-10-22T03:32:31;21.39;54.53
65472;DHT22;52068;50.710;14.492;2022-10-22T03:34:56;21.40;54.59
65472;DHT22;52068;50.710;14.492;2022-10-22T03:37:22;21.42;54.63
65472;DHT22;52068;50.710;14.492;2022-10-22T03:39:48;21.40;54.71
65472;DHT22;52068;50.710;14.492;2022-10-22T03:42:13;21.39;54.69
65472;DHT22;52068;50.710;14.492;2022-10-22T03:44:40;21.40;54.82
65472;DHT22;52068;50.710;14.492;2022-10-22T03:47:05;21.39;54.86
65472;DHT22;52068;50.710;14.492;2022-10-22T03:49:31;21.37;54.86
65472;DHT22;52068;50.710;14.492;2022-10-22T03:51:56;21.39;54.92
65472;DHT22;52068;50.710;14.492;2022-10-22T03:54:21;21.37;54.92
65472;DHT22;52068;50.710;14.492;2022-10-22T03:56:46;21.37;54.98
65472;DHT22;52068;50.710;14.492;2022-10-22T03:59:12;21.39;54.92
65472;DHT22;52068;50.710;14.492;2022-10-22T04:01:37;21.39;54.89
65472;DHT22;52068;50.710;14.492;2022-10-22T04:04:02;21.42;54.80
65472;DHT22;52068;50.710;14.492;2022-10-22T04:06:28;21.40;54.75
65472;DHT22;52068;50.710;14.492;2022-10-22T04:08:53;21.42;54.73
65472;DHT22;52068;50.710;14.492;2022-10-22T04:11:19;21.43;54.78
65472;DHT22;52068;50.710;14.492;2022-10-22T04:13:45;21.40;54.71
65472;DHT22;52068;50.710;14.492;2022-10-22T04:16:15;21.39;54.79
65472;DHT22;52068;50.710;14.492;2022-10-22T04:18:40;21.37;54.78
65472;DHT22;52068;50.710;14.492;2022-10-22T04:21:07;21.39;54.84
65472;DHT22;52068;50.710;14.492;2022-10-22T04:23:32;21.39;54.85
65472;DHT22;52068;50.710;14.492;2022-10-22T04:26:01;21.37;54.75
65472;DHT22;52068;50.710;14.492;2022-10-22T04:28:27;21.36;54.84
65472;DHT22;52068;50.710;14.492;2022-10-22T04:30:53;21.33;54.67
65472;DHT22;52068;50.710;14.492;2022-10-22T04:33:18;21.30;54.58
65472;DHT22;52068;50.710;14.492;2022-10-22T04:35:44;21.29;54.41
65472;DHT22;52068;50.710;14.492;2022-10-22T04:38:09;21.32;54.36
65472;DHT22;52068;50.710;14.492;2022-10-22T04:40:34;21.30;54.32
65472;DHT22;52068;50.710;14.492;2022-10-22T04:42:59;21.29;54.31
65472;DHT22;52068;50.710;14.492;2022-10-22T04:45:25;21.29;54.38
65472;DHT22;52068;50.710;14.492;2022-10-22T04:47:50;21.27;54.37
65472;DHT22;52068;50.710;14.492;2022-10-22T04:50:15;21.27;54.37
65472;DHT22;52068;50.710;14.492;2022-10-22T04:52:40;21.29;54.48
65472;DHT22;52068;50.710;14.492;2022-10-22T04:55:06;21.27;54.49
65472;DHT22;52068;50.710;14.492;2022-10-22T04:57:31;21.26;54.47
65472;DHT22;52068;50.710;14.492;2022-10-22T04:59:57;21.27;54.56
65472;DHT22;52068;50.710;14.492;2022-10-22T05:02:22;21.30;54.44
65472;DHT22;52068;50.710;14.492;2022-10-22T05:04:47;21.29;54.33
65472;DHT22;52068;50.710;14.492;2022-10-22T05:07:12;21.29;54.24
65472;DHT22;52068;50.710;14.492;2022-10-22T05:09:38;21.29;54.21
65472;DHT22;52068;50.710;14.492;2022-10-22T05:12:03;21.30;54.22
65472;DHT22;52068;50.710;14.492;2022-10-22T05:14:30;21.29;54.27
65472;DHT22;52068;50.710;14.492;2022-10-22T05:16:56;21.32;54.22
65472;DHT22;52068;50.710;14.492;2022-10-22T05:19:25;21.29;54.28
65472;DHT22;52068;50.710;14.492;2022-10-22T05:21:55;21.30;54.27
65472;DHT22;52068;50.710;14.492;2022-10-22T05:24:20;21.29;54.24
65472;DHT22;52068;50.710;14.492;2022-10-22T05:26:47;21.32;54.53
65472;DHT22;52068;50.710;14.492;2022-10-22T05:29:13;21.30;54.46
65472;DHT22;52068;50.710;14.492;2022-10-22T05:31:38;21.32;54.45
65472;DHT22;52068;50.710;14.492;2022-10-22T05:34:05;21.33;54.31
65472;DHT22;52068;50.710;14.492;2022-10-22T05:36:30;21.33;54.20
65472;DHT22;52068;50.710;14.492;2022-10-22T05:38:55;21.32;54.20
65472;DHT22;52068;50.710;14.492;2022-10-22T05:41:22;21.30;54.19
65472;DHT22;52068;50.710;14.492;2022-10-22T05:43:47;21.30;54.04
65472;DHT22;52068;50.710;14.492;2022-10-22T05:46:16;21.33;53.95
65472;DHT22;52068;50.710;14.492;2022-10-22T05:48:42;21.34;53.67
65472;DHT22;52068;50.710;14.492;2022-10-22T05:51:11;21.36;52.62
65472;DHT22;52068;50.710;14.492;2022-10-22T05:53:37;21.39;52.10
65472;DHT22;52068;50.710;14.492;2022-10-22T05:56:04;21.39;51.71
65472;DHT22;52068;50.710;14.492;2022-10-22T05:58:31;21.43;51.39
65472;DHT22;52068;50.710;14.492;2022-10-22T06:01:00;21.40;51.17
65472;DHT22;52068;50.710;14.492;2022-10-22T06:03:26;21.43;50.91
65472;DHT22;52068;50.710;14.492;2022-10-22T06:05:52;21.46;50.65
65472;DHT22;52068;50.710;14.492;2022-10-22T06:08:18;21.47;50.55
65472;DHT22;52068;50.710;14.492;2022-10-22T06:10:43;21.49;50.38
65472;DHT22;52068;50.710;14.492;2022-10-22T06:13:08;21.46;50.35
65472;DHT22;52068;50.710;14.492;2022-10-22T06:15:33;21.44;50.36
65472;DHT22;52068;50.710;14.492;2022-10-22T06:17:59;21.39;50.31
65472;DHT22;52068;50.710;14.492;2022-10-22T06:20:24;21.36;50.32
65472;DHT22;52068;50.710;14.492;2022-10-22T06:22:50;21.37;50.32
65472;DHT22;52068;50.710;14.492;2022-10-22T06:25:15;21.37;50.24
65472;DHT22;52068;50.710;14.492;2022-10-22T06:27:40;21.33;51.08
65472;DHT22;52068;50.710;14.492;2022-10-22T06:30:06;21.36;51.02
65472;DHT22;52068;50.710;14.492;2022-10-22T06:32:31;21.37;51.17
65472;DHT22;52068;50.710;14.492;2022-10-22T06:34:56;21.36;51.19
65472;DHT22;52068;50.710;14.492;2022-10-22T06:37:22;21.37;51.19
65472;DHT22;52068;50.710;14.492;2022-10-22T06:39:47;21.40;51.29
65472;DHT22;52068;50.710;14.492;2022-10-22T06:42:12;21.42;51.37
65472;DHT22;52068;50.710;14.492;2022-10-22T06:44:37;21.42;51.32
65472;DHT22;52068;50.710;14.492;2022-10-22T06:47:03;21.42;51.44
65472;DHT22;52068;50.710;14.492;2022-10-22T06:49:28;21.43;51.48
65472;DHT22;52068;50.710;14.492;2022-10-22T06:51:53;21.43;51.49
65472;DHT22;52068;50.710;14.492;2022-10-22T06:54:19;21.50;51.42
65472;DHT22;52068;50.710;14.492;2022-10-22T06:56:45;21.49;51.45
65472;DHT22;52068;50.710;14.492;2022-10-22T06:59:10;21.54;51.42
65472;DHT22;52068;50.710;14.492;2022-10-22T07:01:35;21.58;51.38
65472;DHT22;52068;50.710;14.492;2022-10-22T07:04:01;21.63;51.21
65472;DHT22;52068;50.710;14.492;2022-10-22T07:06:27;21.61;51.25
65472;DHT22;52068;50.710;14.492;2022-10-22T07:08:53;21.63;51.23
65472;DHT22;52068;50.710;14.492;2022-10-22T07:11:22;21.64;51.10
65472;DHT22;52068;50.710;14.492;2022-10-22T07:13:48;21.63;51.22
65472;DHT22;52068;50.710;14.492;2022-10-22T07:16:14;21.65;51.15
65472;DHT22;52068;50.710;14.492;2022-10-22T07:18:40;21.65;51.21
65472;DHT22;52068;50.710;14.492;2022-10-22T07:21:06;21.67;51.29
65472;DHT22;52068;50.710;14.492;2022-10-22T07:23:32;21.67;51.29
65472;DHT22;52068;50.710;14.492;2022-10-22T07:25:57;21.67;51.34
65472;DHT22;52068;50.710;14.492;2022-10-22T07:28:23;21.67;51.27
65472;DHT22;52068;50.710;14.492;2022-10-22T07:30:48;21.67;51.23
65472;DHT22;52068;50.710;14.492;2022-10-22T07:33:14;21.67;51.29
65472;DHT22;52068;50.710;14.492;2022-10-22T07:35:39;21.67;51.24
65472;DHT22;52068;50.710;14.492;2022-10-22T07:38:05;21.67;51.24
65472;DHT22;52068;50.710;14.492;2022-10-22T07:40:31;21.73;51.29
65472;DHT22;52068;50.710;14.492;2022-10-22T07:42:56;21.75;51.45
65472;DHT22;52068;50.710;14.492;2022-10-22T07:45:22;21.75;51.19
65472;DHT22;52068;50.710;14.492;2022-10-22T07:47:47;21.81;51.17
65472;DHT22;52068;50.710;14.492;2022-10-22T07:50:13;21.87;51.03
65472;DHT22;52068;50.710;14.492;2022-10-22T07:52:38;21.90;51.14
65472;DHT22;52068;50.710;14.492;2022-10-22T07:55:03;21.94;50.88
65472;DHT22;52068;50.710;14.492;2022-10-22T07:57:29;21.91;50.81
65472;DHT22;52068;50.710;14.492;2022-10-22T07:59:54;21.95;50.72
65472;DHT22;52068;50.710;14.492;2022-10-22T08:02:22;21.98;50.76
65472;DHT22;52068;50.710;14.492;2022-10-22T08:04:47;22.00;50.74
65472;DHT22;52068;50.710;14.492;2022-10-22T08:07:12;21.98;50.76
65472;DHT22;52068;50.710;14.492;2022-10-22T08:09:37;21.98;50.79
65472;DHT22;52068;50.710;14.492;2022-10-22T08:12:03;22.01;50.75
65472;DHT22;52068;50.710;14.492;2022-10-22T08:14:28;22.02;50.77
65472;DHT22;52068;50.710;14.492;2022-10-22T08:16:53;22.05;50.85
65472;DHT22;52068;50.710;14.492;2022-10-22T08:19:18;22.06;50.78
65472;DHT22;52068;50.710;14.492;2022-10-22T08:21:45;22.06;50.72
65472;DHT22;52068;50.710;14.492;2022-10-22T08:24:11;22.11;50.75
65472;DHT22;52068;50.710;14.492;2022-10-22T08:26:36;22.11;50.70
65472;DHT22;52068;50.710;14.492;2022-10-22T08:29:02;22.15;50.69
65472;DHT22;52068;50.710;14.492;2022-10-22T08:31:27;22.14;50.75
65472;DHT22;52068;50.710;14.492;2022-10-22T08:33:52;22.15;50.65
65472;DHT22;52068;50.710;14.492;2022-10-22T08:36:17;22.19;50.54
65472;DHT22;52068;50.710;14.492;2022-10-22T08:38:43;22.18;50.59
65472;DHT22;52068;50.710;14.492;2022-10-22T08:41:12;22.19;50.47
65472;DHT22;52068;50.710;14.492;2022-10-22T08:48:45;22.18;50.52
65472;DHT22;52068;50.710;14.492;2022-10-22T08:51:11;22.16;50.37
65472;DHT22;52068;50.710;14.492;2022-10-22T08:53:40;22.14;50.43
65472;DHT22;52068;50.710;14.492;2022-10-22T08:56:08;22.15;50.56
65472;DHT22;52068;50.710;14.492;2022-10-22T08:58:35;22.15;50.60
65472;DHT22;52068;50.710;14.492;2022-10-22T09:01:21;22.14;50.54
65472;DHT22;52068;50.710;14.492;2022-10-22T09:03:58;22.15;50.47
65472;DHT22;52068;50.710;14.492;2022-10-22T09:06:27;22.12;50.56
65472;DHT22;52068;50.710;14.492;2022-10-22T09:08:53;22.12;50.67
65472;DHT22;52068;50.710;14.492;2022-10-22T09:13:45;22.18;50.47
65472;DHT22;52068;50.710;14.492;2022-10-22T09:16:18;22.18;50.63
65472;DHT22;52068;50.710;14.492;2022-10-22T09:23:43;22.12;51.07
65472;DHT22;52068;50.710;14.492;2022-10-22T09:26:11;22.08;51.13
65472;DHT22;52068;50.710;14.492;2022-10-22T09:28:37;22.08;51.10
65472;DHT22;52068;50.710;14.492;2022-10-22T09:31:07;22.08;51.20
65472;DHT22;52068;50.710;14.492;2022-10-22T09:33:33;22.11;51.02
65472;DHT22;52068;50.710;14.492;2022-10-22T09:35:59;22.15;50.88
65472;DHT22;52068;50.710;14.492;2022-10-22T09:38:31;22.15;50.70
65472;DHT22;52068;50.710;14.492;2022-10-22T09:40:57;22.18;50.64
65472;DHT22;52068;50.710;14.492;2022-10-22T09:43:22;22.18;50.59
65472;DHT22;52068;50.710;14.492;2022-10-22T09:45:48;22.21;50.45
65472;DHT22;52068;50.710;14.492;2022-10-22T09:48:20;22.24;50.18
65472;DHT22;52068;50.710;14.492;2022-10-22T09:50:54;22.25;50.37
65472;DHT22;52068;50.710;14.492;2022-10-22T09:53:21;22.26;50.43
65472;DHT22;52068;50.710;14.492;2022-10-22T09:55:50;22.29;50.33
65472;DHT22;52068;50.710;14.492;2022-10-22T09:58:16;22.32;50.15
65472;DHT22;52068;50.710;14.492;2022-10-22T10:00:43;22.36;49.87
65472;DHT22;52068;50.710;14.492;2022-10-22T10:03:14;22.41;49.76
65472;DHT22;52068;50.710;14.492;2022-10-22T10:05:41;22.42;49.56
65472;DHT22;52068;50.710;14.492;2022-10-22T10:08:11;22.46;49.57
65472;DHT22;52068;50.710;14.492;2022-10-22T10:10:41;22.46;49.49
65472;DHT22;52068;50.710;14.492;2022-10-22T10:16:01;22.42;49.59
65472;DHT22;52068;50.710;14.492;2022-10-22T10:18:40;22.39;49.52
65472;DHT22;52068;50.710;14.492;2022-10-22T10:21:14;22.36;49.83
65472;DHT22;52068;50.710;14.492;2022-10-22T10:23:49;22.42;49.80
65472;DHT22;52068;50.710;14.492;2022-10-22T10:26:37;22.43;49.84
65472;DHT22;52068;50.710;14.492;2022-10-22T10:29:53;22.42;49.73
65472;DHT22;52068;50.710;14.492;2022-10-22T10:39:35;22.35;48.99
65472;DHT22;52068;50.710;14.492;2022-10-22T10:42:24;22.32;48.40
65472;DHT22;52068;50.710;14.492;2022-10-22T10:50:28;22.32;48.34
65472;DHT22;52068;50.710;14.492;2022-10-22T10:55:28;22.32;48.21
65472;DHT22;52068;50.710;14.492;2022-10-22T11:00:21;22.28;48.35
65472;DHT22;52068;50.710;14.492;2022-10-22T11:05:31;22.21;48.70
65472;DHT22;52068;50.710;14.492;2022-10-22T11:07:59;22.18;48.53
65472;DHT22;52068;50.710;14.492;2022-10-22T11:12:59;22.08;47.79
65472;DHT22;52068;50.710;14.492;2022-10-22T11:15:32;22.09;48.21
65472;DHT22;52068;50.710;14.492;2022-10-22T11:18:01;22.12;48.35
65472;DHT22;52068;50.710;14.492;2022-10-22T11:20:38;22.21;48.43
65472;DHT22;52068;50.710;14.492;2022-10-22T11:23:05;22.22;48.83
65472;DHT22;52068;50.710;14.492;2022-10-22T11:25:37;22.24;48.96
65472;DHT22;52068;50.710;14.492;2022-10-22T11:28:13;22.21;49.06
65472;DHT22;52068;50.710;14.492;2022-10-22T11:30:40;22.21;48.94
65472;DHT22;52068;50.710;14.492;2022-10-22T11:33:10;22.25;49.09
65472;DHT22;52068;50.710;14.492;2022-10-22T11:35:38;22.24;48.95
65472;DHT22;52068;50.710;14.492;2022-10-22T11:38:04;22.19;49.06
65472;DHT22;52068;50.710;14.492;2022-10-22T11:40:37;22.22;48.93
65472;DHT22;52068;50.710;14.492;2022-10-22T11:43:04;22.29;48.88
65472;DHT22;52068;50.710;14.492;2022-10-22T11:45:31;22.35;48.89
65472;DHT22;52068;50.710;14.492;2022-10-22T11:50:54;22.41;48.86
65472;DHT22;52068;50.710;14.492;2022-10-22T11:55:50;22.36;48.94
65472;DHT22;52068;50.710;14.492;2022-10-22T12:00:51;22.32;49.18
65472;DHT22;52068;50.710;14.492;2022-10-22T12:05:42;22.31;49.23
65472;DHT22;52068;50.710;14.492;2022-10-22T12:10:34;22.31;49.38
65472;DHT22;52068;50.710;14.492;2022-10-22T12:15:45;22.26;49.54
65472;DHT22;52068;50.710;14.492;2022-10-22T12:18:11;22.22;49.59
65472;DHT22;52068;50.710;14.492;2022-10-22T12:20:37;22.24;49.67
65472;DHT22;52068;50.710;14.492;2022-10-22T12:23:02;22.24;49.82
65472;DHT22;52068;50.710;14.492;2022-10-22T12:25:29;22.19;49.97
65472;DHT22;52068;50.710;14.492;2022-10-22T12:27:58;22.18;49.94
65472;DHT22;52068;50.710;14.492;2022-10-22T12:30:28;22.19;50.11
65472;DHT22;52068;50.710;14.492;2022-10-22T12:32:55;22.24;50.15
65472;DHT22;52068;50.710;14.492;2022-10-22T12:35:22;22.25;50.10
65472;DHT22;52068;50.710;14.492;2022-10-22T12:37:48;22.24;50.16
65472;DHT22;52068;50.710;14.492;2022-10-22T12:42:49;22.22;50.25
65472;DHT22;52068;50.710;14.492;2022-10-22T12:45:15;22.24;50.41
65472;DHT22;52068;50.710;14.492;2022-10-22T12:47:44;22.25;50.59
65472;DHT22;52068;50.710;14.492;2022-10-22T12:50:14;22.24;50.61
65472;DHT22;52068;50.710;14.492;2022-10-22T12:52:39;22.22;50.57
65472;DHT22;52068;50.710;14.492;2022-10-22T12:55:05;22.21;50.69
65472;DHT22;52068;50.710;14.492;2022-10-22T12:57:32;22.16;50.89
65472;DHT22;52068;50.710;14.492;2022-10-22T12:59:57;22.16;51.08
65472;DHT22;52068;50.710;14.492;2022-10-22T13:02:23;22.16;51.16
65472;DHT22;52068;50.710;14.492;2022-10-22T13:07:40;22.14;51.54
65472;DHT22;52068;50.710;14.492;2022-10-22T13:10:13;22.16;51.74
65472;DHT22;52068;50.710;14.492;2022-10-22T13:12:39;22.19;51.67
65472;DHT22;52068;50.710;14.492;2022-10-22T13:15:18;22.21;51.54
65472;DHT22;52068;50.710;14.492;2022-10-22T13:17:43;22.22;51.37
65472;DHT22;52068;50.710;14.492;2022-10-22T13:22:40;22.19;51.79
65472;DHT22;52068;50.710;14.492;2022-10-22T13:27:46;22.21;51.91
65472;DHT22;52068;50.710;14.492;2022-10-22T13:32:53;22.19;52.01
65472;DHT22;52068;50.710;14.492;2022-10-22T13:35:20;22.16;52.14
65472;DHT22;52068;50.710;14.492;2022-10-22T13:37:46;22.19;52.17
65472;DHT22;52068;50.710;14.492;2022-10-22T13:40:12;22.22;52.08
65472;DHT22;52068;50.710;14.492;2022-10-22T13:42:37;22.24;51.79
65472;DHT22;52068;50.710;14.492;2022-10-22T13:45:03;22.25;51.72
65472;DHT22;52068;50.710;14.492;2022-10-22T13:47:29;22.21;51.30
65472;DHT22;52068;50.710;14.492;2022-10-22T13:49:56;22.24;51.10
65472;DHT22;52068;50.710;14.492;2022-10-22T13:52:47;22.26;51.18
65472;DHT22;52068;50.710;14.492;2022-10-22T13:57:39;22.38;50.78
65472;DHT22;52068;50.710;14.492;2022-10-22T14:00:04;22.39;50.74
65472;DHT22;52068;50.710;14.492;2022-10-22T14:02:30;22.39;50.64
65472;DHT22;52068;50.710;14.492;2022-10-22T14:04:55;22.39;50.70
65472;DHT22;52068;50.710;14.492;2022-10-22T14:07:21;22.35;50.62
65472;DHT22;52068;50.710;14.492;2022-10-22T14:09:46;22.39;50.61
65472;DHT22;52068;50.710;14.492;2022-10-22T14:12:12;22.36;50.53
65472;DHT22;52068;50.710;14.492;2022-10-22T14:14:38;22.36;50.52
65472;DHT22;52068;50.710;14.492;2022-10-22T14:17:03;22.42;50.47
65472;DHT22;52068;50.710;14.492;2022-10-22T14:19:29;22.42;50.37
65472;DHT22;52068;50.710;14.492;2022-10-22T14:21:54;22.45;50.34
65472;DHT22;52068;50.710;14.492;2022-10-22T14:24:20;22.45;50.28
65472;DHT22;52068;50.710;14.492;2022-10-22T14:26:45;22.51;50.18
65472;DHT22;52068;50.710;14.492;2022-10-22T14:29:10;22.51;49.98
65472;DHT22;52068;50.710;14.492;2022-10-22T14:31:36;22.53;49.97
65472;DHT22;52068;50.710;14.492;2022-10-22T14:34:01;22.56;49.84
65472;DHT22;52068;50.710;14.492;2022-10-22T14:36:26;22.62;49.80
65472;DHT22;52068;50.710;14.492;2022-10-22T14:38:52;22.62;49.69
65472;DHT22;52068;50.710;14.492;2022-10-22T14:41:21;22.63;49.65
65472;DHT22;52068;50.710;14.492;2022-10-22T14:43:47;22.66;49.61
65472;DHT22;52068;50.710;14.492;2022-10-22T14:46:13;22.64;49.54
65472;DHT22;52068;50.710;14.492;2022-10-22T14:48:39;22.64;49.51
65472;DHT22;52068;50.710;14.492;2022-10-22T14:51:04;22.64;49.56
65472;DHT22;52068;50.710;14.492;2022-10-22T14:53:30;22.60;49.58
65472;DHT22;52068;50.710;14.492;2022-10-22T14:55:55;22.63;49.53
65472;DHT22;52068;50.710;14.492;2022-10-22T14:58:23;22.63;49.51
65472;DHT22;52068;50.710;14.492;2022-10-22T15:00:48;22.60;49.55
65472;DHT22;52068;50.710;14.492;2022-10-22T15:03:13;22.62;49.57
65472;DHT22;52068;50.710;14.492;2022-10-22T15:05:39;22.60;49.45
65472;DHT22;52068;50.710;14.492;2022-10-22T15:08:07;22.62;49.53
65472;DHT22;52068;50.710;14.492;2022-10-22T15:10:33;22.60;49.46
65472;DHT22;52068;50.710;14.492;2022-10-22T15:12:58;22.63;49.48
65472;DHT22;52068;50.710;14.492;2022-10-22T15:15:23;22.60;49.49
65472;DHT22;52068;50.710;14.492;2022-10-22T15:17:49;22.59;49.50
65472;DHT22;52068;50.710;14.492;2022-10-22T15:20:14;22.62;49.50
65472;DHT22;52068;50.710;14.492;2022-10-22T15:22:40;22.56;49.61
65472;DHT22;52068;50.710;14.492;2022-10-22T15:25:06;22.59;49.56
65472;DHT22;52068;50.710;14.492;2022-10-22T15:27:31;22.57;49.52
65472;DHT22;52068;50.710;14.492;2022-10-22T15:29:57;22.57;49.61
65472;DHT22;52068;50.710;14.492;2022-10-22T15:32:25;22.59;49.57
65472;DHT22;52068;50.710;14.492;2022-10-22T15:34:52;22.57;49.56
65472;DHT22;52068;50.710;14.492;2022-10-22T15:37:18;22.56;49.56
65472;DHT22;52068;50.710;14.492;2022-10-22T15:39:44;22.59;49.54
65472;DHT22;52068;50.710;14.492;2022-10-22T15:42:09;22.59;49.50
65472;DHT22;52068;50.710;14.492;2022-10-22T15:44:34;22.59;49.47
65472;DHT22;52068;50.710;14.492;2022-10-22T15:47:01;22.57;49.48
65472;DHT22;52068;50.710;14.492;2022-10-22T15:49:27;22.48;49.64
65472;DHT22;52068;50.710;14.492;2022-10-22T15:51:52;22.51;49.74
65472;DHT22;52068;50.710;14.492;2022-10-22T15:54:22;22.46;49.72
65472;DHT22;52068;50.710;14.492;2022-10-22T15:56:47;22.45;49.88
65472;DHT22;52068;50.710;14.492;2022-10-22T15:59:13;22.43;49.95
65472;DHT22;52068;50.710;14.492;2022-10-22T16:01:39;22.41;50.08
65472;DHT22;52068;50.710;14.492;2022-10-22T16:04:05;22.39;50.14
65472;DHT22;52068;50.710;14.492;2022-10-22T16:06:34;22.39;50.08
65472;DHT22;52068;50.710;14.492;2022-10-22T16:09:01;22.41;50.09
65472;DHT22;52068;50.710;14.492;2022-10-22T16:11:27;22.39;50.14
65472;DHT22;52068;50.710;14.492;2022-10-22T16:13:53;22.35;50.17
65472;DHT22;52068;50.710;14.492;2022-10-22T16:16:20;22.39;50.15
65472;DHT22;52068;50.710;14.492;2022-10-22T16:18:45;22.39;50.22
65472;DHT22;52068;50.710;14.492;2022-10-22T16:21:12;22.41;50.15
65472;DHT22;52068;50.710;14.492;2022-10-22T16:23:38;22.39;50.19
65472;DHT22;52068;50.710;14.492;2022-10-22T16:26:03;22.41;50.19
65472;DHT22;52068;50.710;14.492;2022-10-22T16:28:28;22.41;50.11
65472;DHT22;52068;50.710;14.492;2022-10-22T16:30:54;22.42;50.13
65472;DHT22;52068;50.710;14.492;2022-10-22T16:33:19;22.38;50.18
65472;DHT22;52068;50.710;14.492;2022-10-22T16:35:44;22.35;50.35
65472;DHT22;52068;50.710;14.492;2022-10-22T16:38:12;22.33;50.43
65472;DHT22;52068;50.710;14.492;2022-10-22T16:40:37;22.29;50.49